Time;durP1;ratioP1;P1;durP2;ratioP2;P2;SDS_P1;SDS_P2;PMS_P1;PMS_P2;Temp;Humidity;BMP_temperature;BMP_pressure;BME280_temperature;BME280_humidity;BME280_pressure;Samples;Min_cycle;Max_cycle;Signal;HPM_P1;HPM_P2
2023/09/18 00:01:26;;;;;;;31.00;23.15;;;18.00;99.90;;;;;;5007829;28;20252;-62
2023/09/18 00:03:52;;;;;;;25.63;21.77;;;18.00;99.90;;;;;;5011641;28;20132;-62
2023/09/18 00:06:19;;;;;;;25.52;22.33;;;17.90;99.90;;;;;;5012039;28;20046;-63
2023/09/18 00:08:45;;;;;;;23.60;21.13;;;18.00;99.90;;;;;;5011168;28;20061;-65
2023/09/18 00:11:11;;;;;;;26.50;21.98;;;17.90;99.90;;;;;;4997218;28;20083;-63
2023/09/18 00:13:38;;;;;;;26.55;21.35;;;18.00;99.90;;;;;;4991766;28;20042;-62
2023/09/18 00:16:04;;;;;;;22.85;20.48;;;18.10;99.90;;;;;;4992182;28;20537;-63
2023/09/18 00:18:30;;;;;;;24.33;20.63;;;18.10;99.90;;;;;;4974265;28;20062;-63
2023/09/18 00:20:56;;;;;;;22.55;20.13;;;18.00;99.90;;;;;;5004189;28;20451;-63
2023/09/18 00:23:23;;;;;;;22.05;19.70;;;17.90;99.90;;;;;;5011853;28;20049;-64
2023/09/18 00:25:49;;;;;;;23.48;18.98;;;17.90;99.90;;;;;;5011084;28;20422;-62
2023/09/18 00:28:15;;;;;;;22.70;19.98;;;18.10;99.90;;;;;;5011041;28;20552;-64
2023/09/18 00:30:49;;;;;;;23.05;20.50;;;18.00;99.90;;;;;;5000886;28;20054;-62
2023/09/18 00:33:19;;;;;;;22.55;19.52;;;18.10;99.90;;;;;;4992149;28;20129;-62
2023/09/18 00:35:49;;;;;;;23.45;19.92;;;18.00;99.90;;;;;;4991570;28;20065;-64
2023/09/18 00:38:16;;;;;;;21.70;19.25;;;18.00;99.90;;;;;;4991254;28;20074;-62
2023/09/18 00:40:43;;;;;;;21.73;17.50;;;18.20;99.90;;;;;;4991679;28;20374;-61
2023/09/18 00:43:10;;;;;;;22.15;19.85;;;18.10;99.90;;;;;;4991480;28;20042;-63
2023/09/18 00:45:41;;;;;;;21.88;19.65;;;18.00;99.90;;;;;;4991385;28;20050;-63
2023/09/18 00:48:08;;;;;;;23.35;19.88;;;18.10;99.90;;;;;;4990978;28;20054;-63
2023/09/18 00:50:35;;;;;;;21.35;19.05;;;18.10;99.90;;;;;;4991170;28;20047;-63
2023/09/18 00:53:02;;;;;;;20.48;18.23;;;18.00;99.90;;;;;;4991559;28;20042;-63
2023/09/18 00:55:30;;;;;;;21.17;19.08;;;18.10;99.90;;;;;;4991512;28;20062;-64
2023/09/18 00:57:57;;;;;;;21.33;19.17;;;18.10;99.90;;;;;;4991100;28;20047;-63
2023/09/18 01:00:23;;;;;;;21.50;19.30;;;18.30;99.90;;;;;;4991505;28;20087;-62
2023/09/18 01:02:49;;;;;;;24.35;19.40;;;18.30;99.90;;;;;;4991144;28;20547;-63
2023/09/18 01:05:17;;;;;;;21.88;19.67;;;18.10;99.90;;;;;;4991446;28;20054;-63
2023/09/18 01:07:44;;;;;;;22.35;20.05;;;18.30;99.90;;;;;;4991597;28;20114;-63
2023/09/18 01:10:15;;;;;;;22.08;19.88;;;18.10;99.90;;;;;;4990866;28;20053;-63
2023/09/18 01:12:50;;;;;;;22.02;19.58;;;18.20;99.90;;;;;;4974546;28;20104;-61
2023/09/18 01:15:23;;;;;;;22.55;19.92;;;18.20;99.90;;;;;;4992071;28;20058;-62
2023/09/18 01:17:50;;;;;;;22.05;19.83;;;18.30;99.90;;;;;;4991363;28;20108;-64
2023/09/18 01:20:17;;;;;;;22.98;19.42;;;18.20;99.90;;;;;;4991328;28;20154;-63
2023/09/18 01:22:43;;;;;;;22.25;20.10;;;18.20;99.90;;;;;;4991253;28;20050;-63
2023/09/18 01:25:09;;;;;;;23.38;20.75;;;18.30;99.90;;;;;;4991317;28;20170;-63
2023/09/18 01:27:36;;;;;;;22.35;20.05;;;18.30;99.90;;;;;;4991419;28;20061;-63
2023/09/18 01:30:02;;;;;;;21.83;19.58;;;18.30;99.90;;;;;;4990642;28;20046;-61
2023/09/18 01:32:31;;;;;;;22.77;20.38;;;18.10;99.90;;;;;;4991382;28;20057;-63
2023/09/18 01:35:00;;;;;;;22.42;20.13;;;18.10;99.90;;;;;;4991216;28;20073;-63
2023/09/18 01:37:28;;;;;;;21.55;19.25;;;18.30;99.90;;;;;;4963009;28;20439;-63
2023/09/18 01:39:58;;;;;;;22.42;20.23;;;18.30;99.90;;;;;;4978883;28;20459;-63
2023/09/18 01:42:26;;;;;;;22.20;19.90;;;18.10;99.90;;;;;;4994433;28;20118;-62
2023/09/18 01:44:54;;;;;;;22.25;19.88;;;18.30;99.90;;;;;;4994779;28;20050;-63
2023/09/18 01:47:23;;;;;;;22.42;20.05;;;18.40;99.90;;;;;;4994802;28;20058;-63
2023/09/18 01:49:49;;;;;;;23.42;21.02;;;18.30;99.90;;;;;;4979018;28;20073;-62
2023/09/18 01:52:16;;;;;;;21.98;19.67;;;18.20;99.90;;;;;;5014402;28;20065;-63
2023/09/18 01:54:42;;;;;;;22.58;20.35;;;18.10;99.90;;;;;;5014147;28;20072;-63
2023/09/18 01:57:08;;;;;;;23.25;20.67;;;18.20;99.90;;;;;;5013541;28;20443;-64
2023/09/18 01:59:35;;;;;;;22.48;20.10;;;18.40;99.90;;;;;;4994577;28;20050;-62
2023/09/18 02:02:03;;;;;;;22.42;20.20;;;18.20;99.90;;;;;;4993870;28;20050;-62
2023/09/18 02:04:30;;;;;;;21.80;19.45;;;18.10;99.90;;;;;;4994341;28;20478;-63
2023/09/18 02:06:57;;;;;;;21.70;19.15;;;18.10;99.90;;;;;;4994523;28;20383;-61
2023/09/18 02:09:23;;;;;;;23.25;20.85;;;18.20;99.90;;;;;;4976935;28;20108;-63
2023/09/18 02:11:49;;;;;;;23.00;20.52;;;18.30;99.90;;;;;;5012362;28;20054;-64
2023/09/18 02:14:15;;;;;;;22.85;20.45;;;18.30;99.90;;;;;;5013777;28;20069;-63
2023/09/18 02:16:46;;;;;;;22.90;20.27;;;18.30;99.90;;;;;;5013548;28;20054;-61
2023/09/18 02:19:13;;;;;;;22.75;20.35;;;18.20;99.90;;;;;;5013291;28;20049;-61
2023/09/18 02:21:40;;;;;;;22.52;20.23;;;18.30;99.90;;;;;;4995493;28;20057;-62
2023/09/18 02:24:07;;;;;;;23.52;21.05;;;18.20;99.90;;;;;;4993862;28;20486;-63
2023/09/18 02:26:33;;;;;;;22.17;19.80;;;18.30;99.90;;;;;;4993807;28;20356;-64
2023/09/18 02:29:02;;;;;;;24.60;22.10;;;18.30;99.90;;;;;;4992837;28;20042;-63
2023/09/18 02:31:28;;;;;;;23.20;20.83;;;18.30;99.90;;;;;;5008808;28;20057;-62
2023/09/18 02:33:55;;;;;;;24.00;21.52;;;18.40;99.90;;;;;;5013590;28;20069;-64
2023/09/18 02:36:21;;;;;;;23.20;20.48;;;18.20;99.90;;;;;;5013515;28;20061;-63
2023/09/18 02:38:48;;;;;;;23.00;20.73;;;18.40;99.90;;;;;;5012752;28;20050;-63
2023/09/18 02:41:14;;;;;;;24.13;20.98;;;18.30;99.90;;;;;;4999269;28;20050;-62
2023/09/18 02:43:40;;;;;;;22.85;20.45;;;18.30;99.90;;;;;;4975988;28;20054;-62
2023/09/18 02:46:07;;;;;;;23.75;21.35;;;18.20;99.90;;;;;;4993733;28;20053;-63
2023/09/18 02:48:34;;;;;;;23.45;21.05;;;18.30;99.90;;;;;;4992908;28;20050;-64
2023/09/18 02:51:01;;;;;;;22.08;19.80;;;18.30;99.90;;;;;;5004487;28;20390;-63
2023/09/18 02:53:27;;;;;;;24.13;21.55;;;18.10;99.90;;;;;;5012851;28;20046;-64
2023/09/18 02:55:55;;;;;;;24.27;21.52;;;18.20;99.90;;;;;;4995455;28;20054;-62
2023/09/18 02:58:22;;;;;;;23.95;21.42;;;18.20;99.90;;;;;;5012569;28;20065;-62
2023/09/18 03:00:50;;;;;;;23.05;19.73;;;18.20;99.90;;;;;;5002061;28;20370;-63
2023/09/18 03:03:17;;;;;;;23.45;21.00;;;18.20;99.90;;;;;;4992970;28;20042;-64
2023/09/18 03:05:44;;;;;;;23.40;20.85;;;18.30;99.90;;;;;;4975869;28;20058;-62
2023/09/18 03:08:12;;;;;;;23.85;20.60;;;18.20;99.90;;;;;;4992548;28;20058;-63
2023/09/18 03:10:40;;;;;;;22.73;20.33;;;18.30;99.90;;;;;;5001102;28;20123;-61
2023/09/18 03:13:07;;;;;;;22.88;20.58;;;18.20;99.90;;;;;;5011746;28;20466;-62
2023/09/18 03:15:34;;;;;;;25.67;20.95;;;18.20;99.90;;;;;;5012043;28;20050;-61
2023/09/18 03:18:01;;;;;;;21.80;19.50;;;18.30;99.90;;;;;;5011719;28;20050;-64
2023/09/18 03:20:29;;;;;;;23.35;20.85;;;18.40;99.90;;;;;;5004264;28;20050;-62
2023/09/18 03:22:57;;;;;;;22.65;19.27;;;18.20;99.90;;;;;;4992484;28;20399;-62
2023/09/18 03:25:23;;;;;;;21.38;19.00;;;18.30;99.90;;;;;;4991519;28;20378;-62
2023/09/18 03:27:52;;;;;;;23.80;21.17;;;18.30;99.90;;;;;;4991776;28;20050;-63
2023/09/18 03:30:19;;;;;;;23.10;20.55;;;18.40;99.90;;;;;;4997890;28;20107;-62
2023/09/18 03:32:45;;;;;;;21.92;19.73;;;18.40;99.90;;;;;;4994249;28;20057;-62
2023/09/18 03:35:18;;;;;;;22.08;19.42;;;18.40;99.90;;;;;;5011631;28;20054;-63
2023/09/18 03:37:45;;;;;;;21.65;19.40;;;18.30;99.90;;;;;;5010732;28;20054;-62
2023/09/18 03:40:12;;;;;;;21.88;19.55;;;18.30;99.90;;;;;;5006724;28;20058;-61
2023/09/18 03:42:40;;;;;;;21.42;19.25;;;18.40;99.90;;;;;;4992169;28;20042;-62
2023/09/18 03:45:07;;;;;;;21.88;19.67;;;18.30;99.90;;;;;;4992493;28;20279;-63
2023/09/18 03:47:35;;;;;;;21.00;18.80;;;18.40;99.90;;;;;;4992313;28;20058;-62
2023/09/18 03:50:02;;;;;;;20.85;18.75;;;18.30;99.90;;;;;;4995140;28;20038;-63
2023/09/18 03:52:29;;;;;;;22.02;19.70;;;18.30;99.90;;;;;;5012046;28;20055;-63
2023/09/18 03:54:55;;;;;;;20.80;18.60;;;18.30;99.90;;;;;;5011823;28;20144;-63
2023/09/18 03:57:21;;;;;;;23.25;19.42;;;18.40;99.90;;;;;;5012400;28;20053;-63
2023/09/18 03:59:48;;;;;;;20.33;18.23;;;18.40;99.90;;;;;;5009118;28;20347;-63
2023/09/18 04:02:14;;;;;;;22.48;18.25;;;18.40;99.90;;;;;;4991751;28;20459;-63
2023/09/18 04:04:40;;;;;;;21.65;19.00;;;18.30;99.90;;;;;;4991776;28;20120;-63
2023/09/18 04:07:07;;;;;;;20.63;18.58;;;18.50;99.90;;;;;;4992247;28;20047;-63
2023/09/18 04:09:36;;;;;;;20.23;18.02;;;18.40;99.90;;;;;;4991647;28;20042;-63
2023/09/18 04:12:05;;;;;;;20.50;18.23;;;18.30;99.90;;;;;;4990207;28;20058;-62
2023/09/18 04:14:32;;;;;;;19.17;17.27;;;18.40;99.90;;;;;;4991712;28;20046;-63
2023/09/18 04:17:00;;;;;;;19.90;17.35;;;18.30;99.90;;;;;;4992990;28;20140;-64
2023/09/18 04:19:26;;;;;;;20.42;16.98;;;18.20;99.90;;;;;;4991747;28;20051;-61
2023/09/18 04:21:53;;;;;;;19.70;16.90;;;18.30;99.90;;;;;;4992162;28;20065;-63
2023/09/18 04:24:19;;;;;;;21.20;17.00;;;18.30;99.90;;;;;;5011151;28;20108;-62
2023/09/18 04:26:45;;;;;;;19.50;16.48;;;18.40;99.90;;;;;;5011275;28;20061;-62
2023/09/18 04:29:11;;;;;;;20.48;17.25;;;18.30;99.90;;;;;;5010687;28;20045;-63
2023/09/18 04:31:38;;;;;;;19.52;17.42;;;18.40;99.90;;;;;;4994895;28;20050;-61
2023/09/18 04:34:04;;;;;;;21.33;16.98;;;18.30;99.90;;;;;;4991633;28;20050;-63
2023/09/18 04:36:31;;;;;;;18.25;15.65;;;18.30;99.90;;;;;;4991239;28;20061;-63
2023/09/18 04:38:58;;;;;;;17.13;15.43;;;18.40;99.90;;;;;;4990768;28;20466;-61
2023/09/18 04:41:24;;;;;;;18.58;16.52;;;18.30;99.90;;;;;;4987838;28;20131;-62
2023/09/18 04:43:50;;;;;;;18.35;16.45;;;18.40;99.90;;;;;;5010887;28;20045;-63
2023/09/18 04:46:17;;;;;;;20.00;16.15;;;18.20;99.90;;;;;;5010847;28;20053;-62
2023/09/18 04:48:43;;;;;;;17.00;14.95;;;18.30;99.90;;;;;;5010126;28;20126;-64
2023/09/18 04:51:09;;;;;;;18.13;15.43;;;18.30;99.90;;;;;;4998298;28;20054;-62
2023/09/18 04:53:35;;;;;;;17.85;15.98;;;18.30;99.90;;;;;;4991182;28;20042;-62
2023/09/18 04:56:03;;;;;;;17.60;14.85;;;18.30;99.90;;;;;;4991210;28;20340;-63
2023/09/18 04:58:30;;;;;;;21.63;16.70;;;18.40;99.90;;;;;;4990693;28;20367;-64
2023/09/18 05:00:58;;;;;;;17.42;15.55;;;18.40;99.90;;;;;;4998249;28;20053;-63
2023/09/18 05:03:26;;;;;;;17.35;14.90;;;18.30;99.90;;;;;;4990487;28;20053;-63
2023/09/18 05:05:52;;;;;;;18.10;15.07;;;18.30;99.90;;;;;;4988407;28;20046;-63
2023/09/18 05:08:19;;;;;;;17.33;14.63;;;18.30;99.90;;;;;;4990019;28;20065;-63
2023/09/18 05:10:46;;;;;;;17.88;14.82;;;18.30;99.90;;;;;;4985662;28;20049;-63
2023/09/18 05:13:12;;;;;;;18.50;14.93;;;18.50;99.90;;;;;;4992350;28;20068;-62
2023/09/18 05:15:38;;;;;;;15.13;13.15;;;18.40;99.90;;;;;;4994054;28;20386;-62
2023/09/18 05:18:05;;;;;;;17.80;14.10;;;18.40;99.90;;;;;;4994364;28;20065;-64
2023/09/18 05:20:31;;;;;;;16.20;14.52;;;18.50;99.90;;;;;;4994802;28;20419;-63
2023/09/18 05:23:00;;;;;;;15.73;13.52;;;18.50;99.90;;;;;;4994945;28;20046;-63
2023/09/18 05:25:33;;;;;;;16.63;14.82;;;18.40;99.90;;;;;;4994385;28;20101;-62
2023/09/18 05:28:01;;;;;;;17.45;14.25;;;18.50;99.90;;;;;;4994439;28;20050;-61
2023/09/18 05:30:38;;;;;;;15.48;13.98;;;18.40;99.90;;;;;;4995104;28;20046;-64
2023/09/18 05:33:07;;;;;;;17.70;14.13;;;18.50;99.90;;;;;;4994833;28;20061;-61
2023/09/18 05:35:36;;;;;;;16.80;14.27;;;18.40;99.90;;;;;;4994898;28;20066;-63
2023/09/18 05:38:03;;;;;;;18.23;14.57;;;18.40;99.90;;;;;;4993724;28;20065;-62
2023/09/18 05:40:30;;;;;;;18.95;14.07;;;18.50;99.90;;;;;;4994890;28;20046;-64
2023/09/18 05:42:56;;;;;;;15.25;13.65;;;18.50;99.90;;;;;;4994283;28;20066;-61
2023/09/18 05:45:23;;;;;;;16.17;14.48;;;18.60;99.90;;;;;;4994505;28;20100;-62
2023/09/18 05:47:50;;;;;;;17.23;13.40;;;18.60;99.90;;;;;;4993121;28;20065;-62
2023/09/18 05:50:16;;;;;;;16.52;14.10;;;18.70;99.90;;;;;;4994077;28;20537;-61
2023/09/18 05:52:47;;;;;;;14.82;13.25;;;18.60;99.90;;;;;;4994470;28;20120;-63
2023/09/18 05:55:15;;;;;;;16.05;13.02;;;18.70;99.90;;;;;;4994445;28;20064;-62
2023/09/18 05:57:41;;;;;;;16.40;13.77;;;18.80;99.90;;;;;;4993078;28;20046;-63
2023/09/18 06:00:12;;;;;;;17.90;14.63;;;18.70;99.90;;;;;;4994792;28;20117;-62
2023/09/18 06:02:40;;;;;;;16.35;14.10;;;18.70;99.90;;;;;;4994445;28;20050;-61
2023/09/18 06:05:06;;;;;;;16.45;14.23;;;18.80;99.90;;;;;;4992872;28;20046;-62
2023/09/18 06:07:33;;;;;;;16.05;14.38;;;18.90;99.90;;;;;;4994178;28;20050;-63
2023/09/18 06:09:59;;;;;;;18.95;14.15;;;18.80;99.90;;;;;;4994480;28;20355;-61
2023/09/18 06:12:26;;;;;;;18.33;14.88;;;18.90;99.90;;;;;;4983404;28;20038;-64
2023/09/18 06:14:52;;;;;;;17.45;14.18;;;18.90;99.90;;;;;;4992243;28;20430;-62
2023/09/18 06:17:18;;;;;;;18.40;15.50;;;18.80;99.90;;;;;;4993450;28;20108;-62
2023/09/18 06:19:45;;;;;;;17.55;14.57;;;18.90;99.90;;;;;;4975381;28;20137;-62
2023/09/18 06:22:12;;;;;;;16.77;13.80;;;19.00;99.90;;;;;;4992960;28;20050;-64
2023/09/18 06:24:38;;;;;;;15.10;13.48;;;19.00;99.90;;;;;;4991321;28;20042;-63
2023/09/18 06:27:05;;;;;;;15.40;13.60;;;18.90;99.90;;;;;;4992085;28;20042;-64
2023/09/18 06:29:35;;;;;;;19.08;15.23;;;19.00;99.90;;;;;;4992935;28;20050;-64
2023/09/18 06:32:01;;;;;;;15.55;13.88;;;18.90;99.90;;;;;;4993090;28;20046;-64
2023/09/18 06:34:28;;;;;;;17.58;14.15;;;19.00;99.90;;;;;;4991849;28;20620;-64
2023/09/18 06:36:54;;;;;;;19.33;14.35;;;19.10;99.90;;;;;;4993076;28;20085;-63
2023/09/18 06:39:22;;;;;;;19.13;15.55;;;18.90;99.90;;;;;;4993889;28;20077;-63
2023/09/18 06:41:48;;;;;;;18.23;14.00;;;19.00;99.90;;;;;;4993978;28;20367;-64
2023/09/18 06:44:15;;;;;;;18.80;15.52;;;19.00;99.90;;;;;;4993429;28;20046;-63
2023/09/18 06:46:41;;;;;;;19.98;15.73;;;19.10;99.90;;;;;;4993340;28;20058;-63
2023/09/18 06:49:07;;;;;;;22.25;16.50;;;19.10;99.90;;;;;;4992996;28;20054;-64
2023/09/18 06:51:34;;;;;;;20.40;15.25;;;19.00;99.90;;;;;;4993246;28;20061;-62
2023/09/18 06:54:02;;;;;;;20.27;16.02;;;19.00;99.90;;;;;;4996668;28;20120;-64
2023/09/18 06:56:29;;;;;;;21.95;15.77;;;19.00;99.90;;;;;;4997795;28;20062;-64
2023/09/18 06:58:55;;;;;;;19.20;16.92;;;19.00;99.90;;;;;;5005524;28;20136;-63
2023/09/18 07:01:24;;;;;;;19.60;15.20;;;18.90;99.90;;;;;;5006253;28;20474;-65
2023/09/18 07:03:50;;;;;;;19.65;15.40;;;18.90;99.90;;;;;;4960906;28;20428;-62
2023/09/18 07:06:18;;;;;;;20.48;15.70;;;18.90;99.90;;;;;;4994324;28;20046;-65
2023/09/18 07:08:44;;;;;;;20.58;16.42;;;19.10;99.90;;;;;;4993551;28;20293;-65
2023/09/18 07:11:11;;;;;;;23.70;16.23;;;19.10;99.90;;;;;;4995688;28;20057;-64
2023/09/18 07:13:38;;;;;;;19.67;17.10;;;19.20;99.90;;;;;;4976557;28;20184;-64
2023/09/18 07:16:06;;;;;;;18.75;15.27;;;19.10;99.90;;;;;;4994232;28;20235;-65
2023/09/18 07:18:32;;;;;;;20.08;15.05;;;19.10;99.90;;;;;;4975620;28;20057;-65
2023/09/18 07:20:59;;;;;;;17.77;14.52;;;19.00;99.90;;;;;;4985183;28;20105;-64
2023/09/18 07:23:25;;;;;;;15.75;12.75;;;19.10;99.90;;;;;;5000745;28;20054;-64
2023/09/18 07:25:51;;;;;;;13.23;11.82;;;19.10;99.90;;;;;;4993124;28;20038;-64
2023/09/18 07:28:19;;;;;;;16.00;11.80;;;19.00;99.90;;;;;;4992095;28;20387;-63
2023/09/18 07:30:46;;;;;;;13.00;11.15;;;19.00;99.90;;;;;;4993577;28;20435;-64
2023/09/18 07:33:17;;;;;;;14.18;10.68;;;19.00;99.90;;;;;;4993299;28;20454;-64
2023/09/18 07:35:47;;;;;;;13.18;11.77;;;19.10;99.90;;;;;;4976281;28;20466;-62
2023/09/18 07:38:14;;;;;;;12.25;10.88;;;19.10;99.90;;;;;;4975243;28;20062;-62
2023/09/18 07:40:41;;;;;;;13.68;10.88;;;19.20;99.90;;;;;;4982135;28;20042;-63
2023/09/18 07:43:07;;;;;;;13.02;10.38;;;19.10;99.90;;;;;;5011200;28;20050;-63
2023/09/18 07:45:41;;;;;;;14.95;11.90;;;19.10;99.90;;;;;;5012902;28;20053;-63
2023/09/18 07:48:09;;;;;;;14.02;11.05;;;19.30;99.90;;;;;;4978910;28;20441;-63
2023/09/18 07:50:35;;;;;;;16.67;13.57;;;19.20;99.90;;;;;;5006432;28;20046;-62
2023/09/18 07:53:02;;;;;;;15.90;14.20;;;19.30;99.90;;;;;;4975703;28;20042;-64
2023/09/18 07:55:29;;;;;;;19.02;14.20;;;19.30;99.90;;;;;;4991833;28;20046;-64
2023/09/18 07:57:56;;;;;;;16.52;14.13;;;19.40;99.90;;;;;;4992731;28;20066;-62
2023/09/18 08:00:22;;;;;;;17.00;14.07;;;19.30;99.90;;;;;;4993195;28;20394;-64
2023/09/18 08:02:50;;;;;;;18.85;15.38;;;19.30;99.90;;;;;;4987599;28;20123;-63
2023/09/18 08:05:17;;;;;;;18.27;16.35;;;19.20;99.90;;;;;;5012051;28;20065;-63
2023/09/18 08:07:43;;;;;;;17.35;14.65;;;19.40;99.90;;;;;;4994512;28;20112;-65
2023/09/18 08:10:12;;;;;;;19.17;15.18;;;19.30;99.90;;;;;;5009854;28;20502;-63
2023/09/18 08:12:38;;;;;;;18.63;15.32;;;19.30;99.90;;;;;;4993210;28;20443;-62
2023/09/18 08:15:06;;;;;;;16.95;13.80;;;19.30;99.90;;;;;;5012779;28;20352;-64
2023/09/18 08:17:32;;;;;;;15.88;12.88;;;19.30;99.90;;;;;;5012551;28;20050;-65
2023/09/18 08:19:58;;;;;;;15.00;12.55;;;19.40;99.90;;;;;;5011296;28;20116;-62
2023/09/18 08:22:25;;;;;;;15.32;13.20;;;19.30;99.90;;;;;;4992696;28;20108;-64
2023/09/18 08:24:52;;;;;;;15.75;11.45;;;19.50;99.90;;;;;;4974264;28;20408;-64
2023/09/18 08:27:19;;;;;;;15.52;12.80;;;19.40;99.90;;;;;;4974127;28;20046;-63
2023/09/18 08:29:46;;;;;;;12.93;11.63;;;19.50;99.90;;;;;;4975385;28;20058;-62
2023/09/18 08:32:13;;;;;;;12.77;11.48;;;19.40;99.90;;;;;;4993766;28;20152;-64
2023/09/18 08:34:39;;;;;;;15.02;11.75;;;19.50;99.90;;;;;;4995131;28;20064;-63
2023/09/18 08:37:06;;;;;;;16.45;12.75;;;19.50;99.90;;;;;;5011992;28;20157;-62
2023/09/18 08:39:32;;;;;;;14.55;12.13;;;19.60;99.90;;;;;;5012041;28;20158;-63
2023/09/18 08:42:03;;;;;;;15.73;12.63;;;19.60;99.90;;;;;;4977801;28;20054;-63
2023/09/18 08:44:30;;;;;;;15.07;12.48;;;19.70;99.90;;;;;;4992444;28;20046;-64
2023/09/18 08:46:57;;;;;;;37.80;15.85;;;19.70;99.90;;;;;;4992123;28;20121;-64
2023/09/18 08:49:24;;;;;;;26.33;15.05;;;19.70;99.90;;;;;;4992107;28;20057;-64
2023/09/18 08:51:53;;;;;;;41.05;16.92;;;19.70;99.90;;;;;;4992353;28;20387;-62
2023/09/18 08:54:20;;;;;;;19.88;13.95;;;19.70;99.90;;;;;;4992315;28;20050;-63
2023/09/18 08:56:46;;;;;;;47.70;18.42;;;19.70;99.90;;;;;;4992237;28;20058;-64
2023/09/18 08:59:13;;;;;;;17.17;14.48;;;19.70;99.90;;;;;;4991948;28;20050;-63
2023/09/18 09:01:40;;;;;;;15.45;13.85;;;19.80;99.90;;;;;;5002602;28;20046;-62
2023/09/18 09:04:06;;;;;;;16.15;14.00;;;19.90;99.90;;;;;;4991679;28;20489;-64
2023/09/18 09:06:32;;;;;;;15.68;13.95;;;19.90;99.90;;;;;;4975221;28;20120;-63
2023/09/18 09:09:03;;;;;;;15.07;13.45;;;20.00;99.90;;;;;;4991880;28;20456;-64
2023/09/18 09:11:29;;;;;;;15.30;13.73;;;20.10;99.90;;;;;;4981942;28;20046;-64
2023/09/18 09:14:17;;;;;;;14.65;13.15;;;20.10;99.90;;;;;;4992263;28;20069;-63
2023/09/18 09:16:48;;;;;;;14.55;13.05;;;20.20;99.90;;;;;;4974982;28;20120;-65
2023/09/18 09:19:18;;;;;;;14.38;12.27;;;20.30;99.90;;;;;;4991695;28;20054;-64
2023/09/18 09:21:46;;;;;;;13.80;12.30;;;20.40;99.90;;;;;;5006061;28;20262;-64
2023/09/18 09:24:13;;;;;;;13.95;12.48;;;20.30;99.90;;;;;;5011509;28;20073;-63
2023/09/18 09:26:41;;;;;;;15.30;12.25;;;20.50;99.90;;;;;;5011083;28;20104;-64
2023/09/18 09:29:25;;;;;;;12.57;11.38;;;20.40;99.90;;;;;;5010922;28;20435;-64
2023/09/18 09:31:51;;;;;;;13.95;11.75;;;20.40;99.90;;;;;;4995704;28;20653;-62
2023/09/18 09:34:26;;;;;;;14.38;11.70;;;20.70;99.90;;;;;;4991868;28;20109;-62
2023/09/18 09:36:54;;;;;;;13.75;12.43;;;20.60;99.90;;;;;;4990005;28;20054;-62
2023/09/18 09:39:25;;;;;;;11.60;10.50;;;20.80;99.90;;;;;;4991516;28;20050;-62
2023/09/18 09:41:52;;;;;;;12.27;10.30;;;20.70;99.90;;;;;;4992208;28;20671;-62
2023/09/18 09:44:20;;;;;;;11.88;10.45;;;20.80;99.90;;;;;;4991391;28;20050;-61
2023/09/18 09:46:48;;;;;;;10.30;9.40;;;20.80;99.90;;;;;;4991401;28;20055;-63
2023/09/18 09:49:16;;;;;;;11.07;10.02;;;20.90;99.90;;;;;;4991392;28;20116;-64
2023/09/18 09:51:43;;;;;;;11.18;10.13;;;21.10;99.90;;;;;;5004891;28;20050;-65
2023/09/18 09:54:12;;;;;;;11.82;9.88;;;21.00;99.90;;;;;;4993811;28;20053;-63
2023/09/18 09:56:50;;;;;;;11.20;10.10;;;21.20;99.90;;;;;;4993880;28;20608;-63
2023/09/18 09:59:19;;;;;;;11.15;10.02;;;21.20;99.90;;;;;;5012654;28;20057;-62
2023/09/18 10:01:51;;;;;;;10.15;9.15;;;21.30;99.90;;;;;;5003240;28;20065;-63
2023/09/18 10:04:19;;;;;;;10.93;8.88;;;21.40;99.90;;;;;;5013990;28;20418;-61
2023/09/18 10:06:56;;;;;;;10.07;9.07;;;21.50;99.90;;;;;;5014380;28;20094;-62
2023/09/18 10:09:25;;;;;;;10.23;9.27;;;21.60;99.90;;;;;;5014245;28;20572;-63
2023/09/18 10:11:53;;;;;;;10.30;9.18;;;21.50;99.90;;;;;;4978595;28;20065;-62
2023/09/18 10:14:29;;;;;;;10.00;8.50;;;21.60;99.90;;;;;;4975649;28;20047;-62
2023/09/18 10:16:56;;;;;;;9.40;8.40;;;21.90;99.90;;;;;;4975487;28;20047;-63
2023/09/18 10:19:39;;;;;;;9.50;8.50;;;21.90;99.90;;;;;;4973593;28;20054;-63
2023/09/18 10:22:37;;;;;;;9.18;8.20;;;22.00;99.90;;;;;;4994498;28;20054;-62
2023/09/18 10:25:20;;;;;;;8.55;7.75;;;22.30;99.90;;;;;;5014796;28;20058;-65
2023/09/18 10:27:53;;;;;;;9.13;8.23;;;22.30;99.90;;;;;;5013324;28;20053;-63
2023/09/18 10:30:22;;;;;;;8.60;7.22;;;22.20;99.90;;;;;;5012993;28;20457;-64
2023/09/18 10:32:51;;;;;;;8.05;7.32;;;22.30;99.90;;;;;;4995832;28;20050;-63
2023/09/18 10:35:19;;;;;;;9.00;8.07;;;22.50;99.90;;;;;;4977065;28;20133;-63
2023/09/18 10:37:53;;;;;;;8.10;7.40;;;22.40;99.90;;;;;;4993932;28;20089;-63
2023/09/18 10:40:21;;;;;;;7.85;6.95;;;22.40;99.90;;;;;;5013596;28;20057;-62
2023/09/18 10:42:49;;;;;;;8.98;7.32;;;22.50;99.90;;;;;;5013796;28;20057;-63
2023/09/18 10:45:16;;;;;;;7.70;6.97;;;22.50;99.90;;;;;;5014108;28;20049;-62
2023/09/18 10:47:46;;;;;;;6.63;6.00;;;22.50;99.90;;;;;;5012898;28;20393;-62
2023/09/18 10:50:26;;;;;;;7.07;6.38;;;22.60;99.90;;;;;;5012729;28;20041;-65
2023/09/18 10:52:53;;;;;;;5.95;5.43;;;22.40;99.90;;;;;;4994903;28;20038;-63
2023/09/18 10:55:21;;;;;;;7.28;6.45;;;22.50;99.90;;;;;;4986907;28;20081;-64
2023/09/18 10:57:58;;;;;;;8.32;5.93;;;22.40;99.90;;;;;;5008179;28;20058;-63
2023/09/18 11:00:27;;;;;;;;;;;22.40;99.90;;;;;;5012382;28;20049;-63
2023/09/18 11:03:09;;;;;;;7.80;6.70;;;22.40;99.90;;;;;;5012636;28;19925;-62
2023/09/18 11:05:36;;;;;;;6.97;6.28;;;22.30;99.90;;;;;;5014474;28;20454;-63
2023/09/18 11:08:24;;;;;;;7.13;6.43;;;22.10;99.90;;;;;;5025406;28;20528;-63
2023/09/18 11:10:58;;;;;;;7.63;6.88;;;21.90;99.90;;;;;;5022251;28;20374;-62
2023/09/18 11:13:36;;;;;;;7.85;7.15;;;21.70;99.90;;;;;;5030672;28;20568;-64
2023/09/18 11:16:28;;;;;;;8.95;7.45;;;21.50;99.90;;;;;;5031669;28;20095;-63
2023/09/18 11:19:10;;;;;;;9.20;8.32;;;21.40;99.90;;;;;;5015348;28;20140;-62
2023/09/18 11:21:37;;;;;;;7.70;7.00;;;21.60;99.90;;;;;;5002330;28;20096;-63
2023/09/18 11:24:14;;;;;;;6.75;6.00;;;21.50;99.90;;;;;;5013175;28;20067;-63
2023/09/18 11:26:42;;;;;;;7.25;6.60;;;21.50;99.90;;;;;;5013343;28;20060;-62
2023/09/18 11:29:10;;;;;;;8.13;7.10;;;21.90;99.90;;;;;;5012841;28;20050;-63
2023/09/18 11:31:56;;;;;;;9.93;7.55;;;22.10;99.90;;;;;;5012696;28;20081;-63
2023/09/18 11:34:37;;;;;;;8.43;7.20;;;22.20;99.90;;;;;;5012955;28;20042;-62
2023/09/18 11:37:20;;;;;;;7.47;6.57;;;22.20;99.90;;;;;;4994843;28;20077;-64
2023/09/18 11:39:46;;;;;;;7.40;6.70;;;22.10;99.90;;;;;;5012969;28;20069;-62
2023/09/18 11:42:18;;;;;;;8.60;7.18;;;22.20;99.90;;;;;;5012905;28;20046;-63
2023/09/18 11:44:48;;;;;;;7.90;6.32;;;22.20;99.90;;;;;;5012912;28;20358;-64
2023/09/18 11:47:19;;;;;;;8.15;7.28;;;22.20;99.90;;;;;;5012636;28;20101;-63
2023/09/18 11:49:58;;;;;;;6.53;5.93;;;22.30;99.90;;;;;;5011527;28;20442;-64
2023/09/18 11:52:26;;;;;;;8.07;7.28;;;22.20;99.90;;;;;;5012873;28;20053;-64
2023/09/18 11:54:55;;;;;;;7.63;6.93;;;22.10;99.90;;;;;;5013092;28;20074;-63
2023/09/18 11:57:21;;;;;;;8.57;6.72;;;22.10;99.90;;;;;;5012699;28;20072;-64
2023/09/18 11:59:50;;;;;;;7.75;6.95;;;22.20;99.90;;;;;;5012250;28;20442;-63
2023/09/18 12:02:27;;;;;;;7.82;7.03;;;22.20;99.90;;;;;;5012291;28;20150;-64
2023/09/18 12:04:55;;;;;;;8.20;7.50;;;22.40;99.90;;;;;;5012783;28;20049;-64
2023/09/18 12:07:21;;;;;;;7.65;6.93;;;22.30;99.90;;;;;;5012663;28;20473;-64
2023/09/18 12:09:47;;;;;;;8.05;6.93;;;22.20;99.90;;;;;;5012494;28;20100;-63
2023/09/18 12:12:15;;;;;;;9.90;7.63;;;22.40;99.90;;;;;;5012597;28;20096;-64
2023/09/18 12:14:44;;;;;;;8.32;7.43;;;22.30;99.90;;;;;;5012238;28;20050;-62
2023/09/18 12:17:15;;;;;;;7.60;6.93;;;22.40;99.90;;;;;;5012245;28;20045;-62
2023/09/18 12:19:53;;;;;;;7.50;6.78;;;22.50;99.90;;;;;;5012397;28;20054;-63
2023/09/18 12:22:27;;;;;;;7.97;6.93;;;22.50;99.90;;;;;;4994332;28;20061;-63
2023/09/18 12:25:08;;;;;;;7.35;6.65;;;22.60;99.90;;;;;;5012342;28;20057;-63
2023/09/18 12:27:37;;;;;;;7.18;6.40;;;22.70;99.90;;;;;;4994762;28;20104;-65
2023/09/18 12:30:05;;;;;;;7.07;6.45;;;22.80;99.90;;;;;;5012251;28;20052;-64
2023/09/18 12:32:32;;;;;;;6.78;6.13;;;22.90;99.90;;;;;;5011946;28;20521;-62
2023/09/18 12:34:58;;;;;;;8.45;6.18;;;23.00;99.90;;;;;;5012071;28;20175;-62
2023/09/18 12:37:25;;;;;;;6.60;5.97;;;23.10;99.90;;;;;;4993973;28;20053;-64